Time,TemperatureF,DewpointF,PressureIn,WindDirection,WindDirectionDegrees,WindSpeedMPH,WindSpeedGustMPH,Humidity,HourlyPrecipIn,Conditions,Clouds,dailyrainin,SoftwareType,DateUTC
2013-02-20 00:12:00,38.8,31.0,29.86,West,260,3.0,-999.0,74,-99.99,,,0.00,weatherlink.com 1.10,2013-02-20 08:12:00,
2013-02-20 00:27:00,38.8,31.0,29.86,WNW,292,3.0,-999.0,74,-99.99,,,0.00,weatherlink.com 1.10,2013-02-20 08:27:00,
2013-02-20 00:42:00,38.9,31.0,29.86,NW,322,5.0,-999.0,73,-99.99,,,0.00,weatherlink.com 1.10,2013-02-20 08:42:00,
2013-02-20 00:57:00,39.5,31.0,29.86,West,268,1.0,-999.0,71,-99.99,,,0.00,weatherlink.com 1.10,2013-02-20 08:57:00,
2013-02-20 01:12:00,39.9,30.0,29.86,SW,236,1.0,-999.0,68,-99.99,,,0.00,weatherlink.com 1.10,2013-02-20 09:12:00,
2013-02-20 01:27:00,40.3,30.0,29.87,ENE,65,1.0,-999.0,66,-99.99,,,0.00,weatherlink.com 1.10,2013-02-20 09:27:00,
2013-02-20 01:42:00,40.8,30.0,29.88,West,268,14.0,-999.0,66,-99.99,,,0.00,weatherlink.com 1.10,2013-02-20 09:42:00,
2013-02-20 01:57:00,40.5,30.0,29.89,West,275,0.0,-999.0,67,-99.99,,,0.00,weatherlink.com 1.10,2013-02-20 09:57:00,
2013-02-20 02:12:00,40.5,31.0,29.89,North,355,15.0,-999.0,68,-99.99,,,0.00,weatherlink.com 1.10,2013-02-20 10:12:00,
2013-02-20 02:27:00,40.8,30.0,29.89,NW,307,4.0,-999.0,66,-99.99,,,0.00,weatherlink.com 1.10,2013-02-20 10:27:00,
2013-02-20 02:42:00,41.0,30.0,29.89,NNW,338,2.0,-999.0,65,-99.99,,,0.00,weatherlink.com 1.10,2013-02-20 10:42:00,
2013-02-20 02:57:00,40.3,30.0,29.89,East,90,2.0,-999.0,67,-99.99,,,0.00,weatherlink.com 1.10,2013-02-20 10:57:00,
2013-02-20 03:12:00,40.9,29.0,29.89,West,270,11.0,-999.0,64,-99.99,,,0.00,weatherlink.com 1.10,2013-02-20 11:12:00,
2013-02-20 03:27:00,42.1,30.0,29.89,WNW,296,2.0,-999.0,62,-99.99,,,0.00,weatherlink.com 1.10,2013-02-20 11:27:00,
2013-02-20 03:42:00,41.7,30.0,29.89,WNW,298,1.0,-999.0,63,-99.99,,,0.00,weatherlink.com 1.10,2013-02-20 11:42:00,
2013-02-20 03:57:00,40.8,30.0,29.89,SW,221,1.0,-999.0,66,-99.99,,,0.00,weatherlink.com 1.10,2013-02-20 11:57:00,
2013-02-20 04:12:00,40.9,30.0,29.90,ENE,57,2.0,-999.0,66,-99.99,,,0.00,weatherlink.com 1.10,2013-02-20 12:12:00,
2013-02-20 04:27:00,41.4,30.0,29.90,West,277,3.0,-999.0,64,-99.99,,,0.00,weatherlink.com 1.10,2013-02-20 12:27:00,
2013-02-20 04:42:00,41.4,30.0,29.90,East,96,0.0,-999.0,65,-99.99,,,0.00,weatherlink.com 1.10,2013-02-20 12:42:00,
2013-02-20 04:57:00,40.5,31.0,29.91,SE,128,4.0,-999.0,68,-99.99,,,0.00,weatherlink.com 1.10,2013-02-20 12:57:00,
2013-02-20 05:12:00,38.8,31.0,29.92,East,87,0.0,-999.0,73,-99.99,,,0.00,weatherlink.com 1.10,2013-02-20 13:12:00,
2013-02-20 05:27:00,39.7,30.0,29.92,NW,317,1.0,-999.0,69,-99.99,,,0.00,weatherlink.com 1.10,2013-02-20 13:27:00,
2013-02-20 05:42:00,40.8,30.0,29.93,WNW,294,0.0,-999.0,65,-99.99,,,0.00,weatherlink.com 1.10,2013-02-20 13:42:00,
2013-02-20 05:57:00,41.1,30.0,29.93,West,259,4.0,-999.0,66,-99.99,,,0.00,weatherlink.com 1.10,2013-02-20 13:57:00,
2013-02-20 06:12:00,42.0,30.0,29.93,NNW,346,6.0,-999.0,62,-99.99,,,0.00,weatherlink.com 1.10,2013-02-20 14:12:00,
2013-02-20 06:27:00,42.6,30.0,29.93,West,259,0.0,-999.0,61,-99.99,,,0.00,weatherlink.com 1.10,2013-02-20 14:27:00,
2013-02-20 06:42:00,42.2,29.0,29.93,WNW,284,2.0,-999.0,61,-99.99,,,0.00,weatherlink.com 1.10,2013-02-20 14:42:00,
2013-02-20 06:57:00,42.5,29.0,29.94,ESE,120,2.0,-999.0,60,-99.99,,,0.00,weatherlink.com 1.10,2013-02-20 14:57:00,
2013-02-20 07:12:00,41.5,30.0,29.95,SE,136,0.0,-999.0,63,-99.99,,,0.00,weatherlink.com 1.10,2013-02-20 15:12:00,
2013-02-20 07:27:00,42.2,31.0,29.95,WSW,244,3.0,-999.0,65,-99.99,,,0.00,weatherlink.com 1.10,2013-02-20 15:27:00,
2013-02-20 07:42:00,40.8,31.0,29.96,ESE,113,2.0,-999.0,69,-99.99,,,0.00,weatherlink.com 1.10,2013-02-20 15:42:00,
2013-02-20 07:57:00,41.5,32.0,29.97,SE,140,0.0,-999.0,70,-99.99,,,0.00,weatherlink.com 1.10,2013-02-20 15:57:00,
2013-02-20 08:12:00,42.8,33.0,29.98,ESE,111,2.0,-999.0,69,-99.99,,,0.00,weatherlink.com 1.10,2013-02-20 16:12:00,
2013-02-20 08:27:00,43.7,34.0,29.98,SE,126,2.0,-999.0,68,-99.99,,,0.00,weatherlink.com 1.10,2013-02-20 16:27:00,
2013-02-20 08:42:00,46.0,35.0,29.98,SE,128,0.0,-999.0,65,-99.99,,,0.00,weatherlink.com 1.10,2013-02-20 16:42:00,
2013-02-20 08:57:00,47.9,35.0,29.99,ESE,111,0.0,-999.0,62,-99.99,,,0.00,weatherlink.com 1.10,2013-02-20 16:57:00,
2013-02-20 09:12:00,49.7,33.0,29.99,WNW,298,2.0,-999.0,54,-99.99,,,0.00,weatherlink.com 1.10,2013-02-20 17:12:00,
2013-02-20 09:27:00,50.8,34.0,30.00,West,269,0.0,-999.0,52,-99.99,,,0.00,weatherlink.com 1.10,2013-02-20 17:27:00,
2013-02-20 09:42:00,52.0,34.0,30.00,NNW,327,2.0,-999.0,50,-99.99,,,0.00,weatherlink.com 1.10,2013-02-20 17:42:00,
2013-02-20 09:57:00,52.5,33.0,30.00,NW,309,6.0,-999.0,48,-99.99,,,0.00,weatherlink.com 1.10,2013-02-20 17:57:00,
2013-02-20 10:12:00,52.2,34.0,30.01,WNW,303,4.0,-999.0,50,-99.99,,,0.00,weatherlink.com 1.10,2013-02-20 18:12:00,
2013-02-20 10:27:00,52.9,35.0,30.01,WNW,296,1.0,-999.0,51,-99.99,,,0.00,weatherlink.com 1.10,2013-02-20 18:27:00,
2013-02-20 10:42:00,53.2,32.0,30.01,NNW,327,3.0,-999.0,45,-99.99,,,0.00,weatherlink.com 1.10,2013-02-20 18:42:00,
2013-02-20 10:57:00,53.8,34.0,30.01,NW,307,4.0,-999.0,47,-99.99,,,0.00,weatherlink.com 1.10,2013-02-20 18:57:00,
2013-02-20 11:12:00,55.3,36.0,30.01,SSW,197,4.0,-999.0,48,-99.99,,,0.00,weatherlink.com 1.10,2013-02-20 19:12:00,
2013-02-20 11:27:00,56.9,35.0,30.01,WNW,302,0.0,-999.0,44,-99.99,,,0.00,weatherlink.com 1.10,2013-02-20 19:27:00,
2013-02-20 11:42:00,56.6,34.0,30.01,WNW,293,9.0,-999.0,43,-99.99,,,0.00,weatherlink.com 1.10,2013-02-20 19:42:00,
2013-02-20 11:57:00,56.2,34.0,30.01,North,360,0.0,-999.0,43,-99.99,,,0.00,weatherlink.com 1.10,2013-02-20 19:57:00,
2013-02-20 12:12:00,57.0,35.0,30.01,WNW,283,0.0,-999.0,44,-99.99,,,0.00,weatherlink.com 1.10,2013-02-20 20:12:00,
2013-02-20 12:27:00,57.5,37.0,30.00,WNW,296,4.0,-999.0,46,-99.99,,,0.00,weatherlink.com 1.10,2013-02-20 20:27:00,
2013-02-20 12:42:00,56.5,36.0,30.00,NW,313,12.0,-999.0,47,-99.99,,,0.00,weatherlink.com 1.10,2013-02-20 20:42:00,
2013-02-20 12:57:00,56.2,37.0,30.00,WNW,298,7.0,-999.0,48,-99.99,,,0.00,weatherlink.com 1.10,2013-02-20 20:57:00,
2013-02-20 13:12:00,55.3,36.0,30.00,WNW,298,9.0,-999.0,49,-99.99,,,0.00,weatherlink.com 1.10,2013-02-20 21:12:00,
2013-02-20 13:27:00,55.0,37.0,29.98,NW,323,11.0,-999.0,51,-99.99,,,0.00,weatherlink.com 1.10,2013-02-20 21:27:00,
2013-02-20 13:42:00,54.9,37.0,29.98,NW,317,5.0,-999.0,51,-99.99,,,0.00,weatherlink.com 1.10,2013-02-20 21:42:00,
2013-02-20 13:57:00,55.5,38.0,29.98,NW,310,9.0,-999.0,52,-99.99,,,0.00,weatherlink.com 1.10,2013-02-20 21:57:00,
2013-02-20 14:12:00,55.1,37.0,29.98,NNW,341,11.0,-999.0,51,-99.99,,,0.00,weatherlink.com 1.10,2013-02-20 22:12:00,
2013-02-20 14:27:00,55.7,38.0,29.98,NW,319,5.0,-999.0,52,-99.99,,,0.00,weatherlink.com 1.10,2013-02-20 22:27:00,
2013-02-20 14:57:00,55.4,37.0,29.98,NW,304,12.0,-999.0,50,-99.99,,,0.00,weatherlink.com 1.10,2013-02-20 22:57:00,
2013-02-20 15:12:00,55.1,38.0,29.98,NW,305,6.0,-999.0,53,-99.99,,,0.00,weatherlink.com 1.10,2013-02-20 23:12:00,
2013-02-20 15:27:00,56.0,38.0,29.97,West,275,6.0,-999.0,52,-99.99,,,0.00,weatherlink.com 1.10,2013-02-20 23:27:00,
2013-02-20 15:42:00,55.7,40.0,29.98,WNW,290,3.0,-999.0,55,-99.99,,,0.00,weatherlink.com 1.10,2013-02-20 23:42:00,
2013-02-20 15:57:00,55.4,39.0,29.98,NW,309,15.0,-999.0,54,-99.99,,,0.00,weatherlink.com 1.10,2013-02-20 23:57:00,
2013-02-20 16:27:00,53.0,38.0,29.99,WNW,301,17.0,-999.0,58,-99.99,,,0.00,weatherlink.com 1.10,2013-02-21 00:27:00,
2013-02-20 16:42:00,52.2,38.0,29.98,West,271,5.0,-999.0,60,-99.99,,,0.00,weatherlink.com 1.10,2013-02-21 00:42:00,
2013-02-20 16:57:00,50.7,38.0,29.98,NNE,17,8.0,-999.0,62,-99.99,,,0.00,weatherlink.com 1.10,2013-02-21 00:57:00,
2013-02-20 17:12:00,49.7,38.0,29.98,NW,306,20.0,-999.0,64,-99.99,,,0.00,weatherlink.com 1.10,2013-02-21 01:12:00,
2013-02-20 17:27:00,49.5,38.0,29.98,NNW,333,11.0,-999.0,65,-99.99,,,0.00,weatherlink.com 1.10,2013-02-21 01:27:00,
2013-02-20 17:41:00,49.5,37.0,29.98,WNW,284,7.0,-999.0,63,-99.99,,,0.00,weatherlink.com 1.10,2013-02-21 01:41:00,
2013-02-20 17:56:00,49.2,37.0,29.99,NW,323,18.0,-999.0,64,-99.99,,,0.00,weatherlink.com 1.10,2013-02-21 01:56:00,
2013-02-20 18:11:00,49.5,36.0,29.99,NW,317,11.0,-999.0,61,-99.99,,,0.00,weatherlink.com 1.10,2013-02-21 02:11:00,
2013-02-20 18:26:00,49.4,36.0,29.99,WNW,288,6.0,-999.0,60,-99.99,,,0.00,weatherlink.com 1.10,2013-02-21 02:26:00,
2013-02-20 18:41:00,49.8,36.0,30.00,WNW,290,6.0,-999.0,59,-99.99,,,0.00,weatherlink.com 1.10,2013-02-21 02:41:00,
2013-02-20 18:56:00,50.2,36.0,30.00,WNW,294,10.0,-999.0,59,-99.99,,,0.00,weatherlink.com 1.10,2013-02-21 02:56:00,
2013-02-20 19:11:00,49.7,37.0,30.00,West,269,16.0,-999.0,62,-99.99,,,0.00,weatherlink.com 1.10,2013-02-21 03:11:00,
2013-02-20 19:26:00,49.8,37.0,30.00,WNW,296,17.0,-999.0,62,-99.99,,,0.00,weatherlink.com 1.10,2013-02-21 03:26:00,
2013-02-20 19:41:00,49.4,38.0,30.01,NW,306,6.0,-999.0,64,-99.99,,,0.00,weatherlink.com 1.10,2013-02-21 03:41:00,
2013-02-20 19:56:00,49.0,38.0,30.02,WSW,242,14.0,-999.0,65,-99.99,,,0.00,weatherlink.com 1.10,2013-02-21 03:56:00,
2013-02-20 20:11:00,48.8,38.0,30.03,NW,304,10.0,-999.0,66,-99.99,,,0.00,weatherlink.com 1.10,2013-02-21 04:11:00,
2013-02-20 20:26:00,48.5,37.0,30.03,NW,311,12.0,-999.0,65,-99.99,,,0.00,weatherlink.com 1.10,2013-02-21 04:26:00,
2013-02-20 20:41:00,48.4,37.0,30.04,NW,322,12.0,-999.0,64,-99.99,,,0.00,weatherlink.com 1.10,2013-02-21 04:41:00,
2013-02-20 20:56:00,48.5,36.0,30.04,WNW,293,11.0,-999.0,62,-99.99,,,0.00,weatherlink.com 1.10,2013-02-21 04:56:00,
2013-02-20 21:11:00,48.5,35.0,30.04,NW,319,5.0,-999.0,61,-99.99,,,0.00,weatherlink.com 1.10,2013-02-21 05:11:00,
2013-02-20 21:26:00,48.6,35.0,30.05,NNW,327,4.0,-999.0,60,-99.99,,,0.00,weatherlink.com 1.10,2013-02-21 05:26:00,
2013-02-20 21:41:00,48.0,36.0,30.05,NNW,338,14.0,-999.0,63,-99.99,,,0.00,weatherlink.com 1.10,2013-02-21 05:41:00,
2013-02-20 22:11:00,46.8,36.0,30.06,NNW,342,14.0,-999.0,67,-99.99,,,0.00,weatherlink.com 1.10,2013-02-21 06:11:00,
2013-02-20 22:26:00,46.7,36.0,30.07,West,279,7.0,-999.0,67,-99.99,,,0.00,weatherlink.com 1.10,2013-02-21 06:26:00,
2013-02-20 22:41:00,46.5,36.0,30.05,West,269,7.0,-999.0,66,-99.99,,,0.00,weatherlink.com 1.10,2013-02-21 06:41:00,
2013-02-20 22:56:00,46.9,35.0,30.04,West,275,5.0,-999.0,64,-99.99,,,0.00,weatherlink.com 1.10,2013-02-21 06:56:00,
2013-02-20 23:11:00,47.2,35.0,30.05,West,267,5.0,-999.0,62,-99.99,,,0.00,weatherlink.com 1.10,2013-02-21 07:11:00,
2013-02-20 23:26:00,47.2,35.0,30.04,West,261,9.0,-999.0,62,-99.99,,,0.00,weatherlink.com 1.10,2013-02-21 07:26:00,
2013-02-20 23:41:00,47.0,34.0,30.05,NW,304,12.0,-999.0,62,-99.99,,,0.00,weatherlink.com 1.10,2013-02-21 07:41:00,
2013-02-20 23:56:00,46.8,34.0,30.05,NW,324,13.0,-999.0,62,-99.99,,,0.00,weatherlink.com 1.10,2013-02-21 07:56:00,